SBBE/BEL METAR and TAF weather

Enter ICAO airport designator
Station Type Date Time Source
SBBE METAR 2019/02/17 07:00 UTC NOAA

SBBE 170700Z 11005KT 8000 FEW020 SCT080 26/24 Q1010


Station Type Date Time Source
SBBE Decoded METAR 2019/02/17 07:00 UTC NOAA

Belem Aeroporto , Brazil (SBBE) 01-23S 048-29W 16M
Feb 17, 2019 - 02:00 AM EST / 2019.02.17 0700 UTC
Wind: from the ESE (110 degrees) at 6 MPH (5 KT):0
Visibility: 4 mile(s):0
Sky conditions: partly cloudy
Temperature: 78 F (26 C)
Dew Point: 75 F (24 C)
Relative Humidity: 88%
Pressure (altimeter): 29.83 in. Hg (1010 hPa)
ob: SBBE 170700Z 11005KT 8000 FEW020 SCT080 26/24 Q1010
cycle: 7

Station Type Date Time Source
SBBE TAF 2019/02/17 06:15 UTC NOAA

TAF TAF SBBE 170400Z 1706/1806 07005KT 8000 FEW030 TN24/1707Z TX28/1716Z
BECMG 1707/1709 SCT015
BECMG 1713/1714 05015KT 9999 BKN025 FEW030TCU
TEMPO 1715/1718 36010KT 4000 TSRA BKN020 FEW025CB
BECMG 1722/1724 06008KT FEW030
RMK PCQ


Example: see airport list